Terminal Aerodrome Forecast
Issued by NWS

Home | Current Version | Previous Version | Text Only | Print | Product List | Glossary On
Versions: 1 2 3 4 5 6 7 8 9 10 11 12 13 14 15
000
FTUS43 KICT 201700 RRA
TAFCNU
TAF
KCNU 201742Z 2018/2118 18017KT P6SM SCT050 BKN150
     FM202000 19016KT P6SM VCSH SCT050 BKN110
     FM210200 17010KT P6SM VCTS SCT030 BKN050CB
     FM210600 22012KT P6SM VCSH BKN025
     FM211600 28010KT P6SM VCSH BKN025=

USA.gov is the U.S. government's official web portal to all federal, state and local government web resources and services.